createdAt,value
2022-08-29T00:00:17.800Z,10.30
2022-08-29T00:02:48.251Z,10.20
2022-08-29T00:05:16.801Z,10.20
2022-08-29T00:07:44.952Z,10.10
2022-08-29T00:10:16.669Z,10.10
2022-08-29T00:12:45.709Z,10.00
2022-08-29T00:15:15.819Z,10.00
2022-08-29T00:17:44.349Z,10.00
2022-08-29T00:20:16.005Z,9.90
2022-08-29T00:22:44.755Z,9.90
2022-08-29T00:25:15.869Z,9.90
2022-08-29T00:27:44.668Z,9.80
2022-08-29T00:30:19.431Z,9.80
2022-08-29T00:32:47.701Z,9.80
2022-08-29T00:35:20.057Z,9.90
2022-08-29T00:37:48.327Z,9.80
2022-08-29T00:40:20.619Z,9.70
2022-08-29T00:42:48.982Z,9.70
2022-08-29T00:45:18.424Z,9.60
2022-08-29T00:47:52.474Z,9.60
2022-08-29T00:50:26.711Z,9.60
2022-08-29T00:52:57.317Z,9.50
2022-08-29T00:55:31.129Z,9.50
2022-08-29T00:58:02.091Z,9.40
2022-08-29T01:00:30.849Z,9.40
2022-08-29T01:02:58.970Z,9.30
2022-08-29T01:05:27.916Z,9.30
2022-08-29T01:07:56.185Z,9.20
2022-08-29T01:10:42.070Z,9.20
2022-08-29T01:13:12.871Z,9.20
2022-08-29T01:15:44.145Z,9.10
2022-08-29T01:18:15.630Z,9.10
2022-08-29T01:20:59.785Z,9.10
2022-08-29T01:23:33.790Z,9.10
2022-08-29T01:26:05.135Z,9.00
2022-08-29T01:28:37.746Z,9.00
2022-08-29T01:31:09.381Z,9.00
2022-08-29T01:33:49.712Z,9.00
2022-08-29T01:36:20.534Z,8.90
2022-08-29T01:38:50.062Z,8.90
2022-08-29T01:41:21.333Z,8.90
2022-08-29T01:43:51.980Z,8.90
2022-08-29T01:46:23.111Z,8.90
2022-08-29T01:48:51.439Z,8.80
2022-08-29T01:51:20.601Z,8.80
2022-08-29T01:53:48.729Z,8.80
2022-08-29T01:56:21.083Z,8.80
2022-08-29T01:58:51.252Z,8.80
2022-08-29T02:01:23.449Z,8.70
2022-08-29T02:03:53.724Z,8.70
2022-08-29T02:06:22.122Z,8.60
2022-08-29T02:08:50.283Z,8.70
2022-08-29T02:11:20.162Z,8.60
2022-08-29T02:13:50.130Z,8.60
2022-08-29T02:16:19.638Z,8.60
2022-08-29T02:18:48.034Z,8.50
2022-08-29T02:21:18.810Z,8.40
2022-08-29T02:23:50.189Z,8.40
2022-08-29T02:26:20.939Z,8.50
2022-08-29T02:28:50.508Z,8.40
2022-08-29T02:31:19.474Z,8.40
2022-08-29T02:33:48.268Z,8.40
2022-08-29T02:36:17.989Z,8.30
2022-08-29T02:38:47.905Z,8.30
2022-08-29T02:41:16.532Z,8.40
2022-08-29T02:43:46.063Z,8.30
2022-08-29T02:46:17.059Z,8.30
2022-08-29T02:48:49.213Z,8.30
2022-08-29T02:51:33.044Z,8.30
2022-08-29T02:54:02.064Z,8.30
2022-08-29T02:56:30.499Z,8.40
2022-08-29T02:59:01.347Z,8.40
2022-08-29T03:01:31.287Z,8.40
2022-08-29T03:03:59.805Z,8.30
2022-08-29T03:06:27.937Z,8.30
2022-08-29T03:08:56.466Z,8.20
2022-08-29T03:11:24.988Z,8.20
2022-08-29T03:13:57.424Z,8.10
2022-08-29T03:16:28.077Z,8.10
2022-08-29T03:18:56.415Z,8.10
2022-08-29T03:21:28.081Z,8.10
2022-08-29T03:23:57.423Z,8.00
2022-08-29T03:26:26.549Z,8.00
2022-08-29T03:28:54.746Z,8.00
2022-08-29T03:31:23.416Z,8.00
2022-08-29T03:33:53.080Z,7.90
2022-08-29T03:36:21.199Z,7.90
2022-08-29T03:38:49.727Z,7.90
2022-08-29T03:41:23.399Z,7.90
2022-08-29T03:43:51.614Z,7.90
2022-08-29T03:46:20.136Z,7.90
2022-08-29T03:48:48.661Z,7.90
2022-08-29T03:51:18.964Z,7.80
2022-08-29T03:53:47.227Z,7.80
2022-08-29T03:56:18.440Z,7.80
2022-08-29T03:58:51.905Z,7.70
2022-08-29T04:01:22.841Z,7.70
2022-08-29T04:03:51.533Z,7.80
2022-08-29T04:06:21.088Z,7.80
2022-08-29T04:08:49.792Z,7.70
2022-08-29T04:11:19.747Z,7.80
2022-08-29T04:13:49.276Z,7.80
2022-08-29T04:16:19.772Z,7.80
2022-08-29T04:18:48.447Z,7.80
2022-08-29T04:21:17.311Z,7.80
2022-08-29T04:23:47.337Z,7.70
2022-08-29T04:29:06.831Z,7.70
2022-08-29T04:31:36.638Z,7.70
2022-08-29T04:34:06.120Z,7.80
2022-08-29T04:36:35.710Z,7.90
2022-08-29T04:39:06.974Z,8.00
2022-08-29T04:41:35.322Z,8.10
2022-08-29T04:44:04.000Z,8.20
2022-08-29T04:46:32.818Z,8.40
2022-08-29T04:49:04.302Z,8.50
2022-08-29T04:51:34.564Z,8.60
2022-08-29T04:54:04.611Z,8.70
2022-08-29T04:56:32.879Z,8.80
2022-08-29T04:59:03.048Z,9.00
2022-08-29T05:01:32.631Z,9.00
2022-08-29T05:04:01.113Z,9.20
2022-08-29T05:06:29.587Z,9.40
2022-08-29T05:08:59.798Z,9.60
2022-08-29T05:11:31.269Z,9.70
2022-08-29T05:14:01.032Z,10.10
2022-08-29T05:16:30.998Z,10.80
2022-08-29T05:19:00.638Z,11.60
2022-08-29T05:21:35.220Z,12.00
2022-08-29T05:24:05.726Z,12.60
2022-08-29T05:26:37.823Z,13.30
2022-08-29T05:29:08.909Z,13.70
2022-08-29T05:31:38.543Z,14.20
2022-08-29T05:34:14.095Z,14.80
2022-08-29T05:36:55.049Z,15.30
2022-08-29T05:39:23.226Z,16.40
2022-08-29T05:41:55.815Z,16.90
2022-08-29T05:44:24.119Z,17.70
2022-08-29T05:46:52.825Z,18.40
2022-08-29T05:49:21.178Z,19.10
2022-08-29T05:51:49.402Z,20.30
2022-08-29T05:54:17.754Z,21.00
2022-08-29T05:56:45.921Z,21.90
2022-08-29T05:59:17.202Z,22.40
2022-08-29T06:01:46.925Z,23.10
2022-08-29T06:04:15.499Z,23.70
2022-08-29T06:06:43.675Z,24.20
2022-08-29T06:09:12.939Z,24.10
2022-08-29T06:11:41.243Z,24.50
2022-08-29T06:14:09.480Z,24.80
2022-08-29T06:16:39.711Z,25.40
2022-08-29T06:19:07.960Z,25.20
2022-08-29T06:21:36.386Z,24.90
2022-08-29T06:24:05.097Z,25.50
2022-08-29T06:26:33.557Z,26.00
2022-08-29T06:29:02.271Z,27.10
2022-08-29T06:31:30.656Z,27.50
2022-08-29T06:34:02.340Z,27.70
2022-08-29T06:36:32.148Z,27.30
2022-08-29T06:39:02.153Z,27.70
2022-08-29T06:41:31.051Z,27.20
2022-08-29T06:44:01.559Z,27.80
2022-08-29T06:46:32.590Z,28.20
2022-08-29T06:49:03.932Z,27.70
2022-08-29T06:51:33.359Z,27.60
2022-08-29T06:54:02.212Z,28.70
2022-08-29T06:56:31.341Z,28.20
2022-08-29T06:58:59.553Z,28.40
2022-08-29T07:01:28.048Z,28.50
2022-08-29T07:04:02.061Z,28.80
2022-08-29T07:06:31.200Z,28.90
2022-08-29T07:08:59.898Z,28.80
2022-08-29T07:11:30.980Z,29.10
2022-08-29T07:14:01.612Z,30.20
2022-08-29T07:16:30.461Z,29.90
2022-08-29T07:18:58.907Z,30.30
2022-08-29T07:21:28.853Z,29.70
2022-08-29T07:23:59.148Z,29.30
2022-08-29T07:26:29.657Z,30.40
2022-08-29T07:29:00.341Z,30.80
2022-08-29T07:31:31.542Z,31.20
2022-08-29T07:34:02.288Z,31.00
2022-08-29T07:36:34.601Z,30.80
2022-08-29T07:39:04.988Z,30.30
2022-08-29T07:41:33.187Z,30.50
2022-08-29T07:44:01.334Z,30.70
2022-08-29T07:46:29.492Z,30.70
2022-08-29T07:48:58.931Z,31.40
2022-08-29T07:51:28.111Z,31.30
2022-08-29T07:53:58.557Z,31.60
2022-08-29T07:56:29.385Z,31.30
2022-08-29T07:58:59.039Z,32.20
2022-08-29T08:01:28.377Z,32.70
2022-08-29T08:03:57.317Z,32.60
2022-08-29T08:06:27.549Z,32.20
2022-08-29T08:08:57.720Z,32.90
2022-08-29T08:11:27.198Z,33.30
2022-08-29T08:13:56.407Z,33.30
2022-08-29T08:16:27.146Z,33.40
2022-08-29T08:18:56.314Z,33.30
2022-08-29T08:21:25.355Z,33.30
2022-08-29T08:23:53.824Z,33.20
2022-08-29T08:26:24.054Z,33.10
2022-08-29T08:28:53.392Z,32.50
2022-08-29T08:31:23.446Z,32.30
2022-08-29T08:33:52.048Z,32.30
2022-08-29T08:36:23.695Z,31.90
2022-08-29T08:38:53.704Z,32.50
2022-08-29T08:41:42.124Z,32.90
2022-08-29T08:44:30.702Z,33.20
2022-08-29T08:47:08.527Z,34.10
2022-08-29T08:49:42.440Z,33.60
2022-08-29T08:52:16.744Z,33.60
2022-08-29T08:54:51.924Z,33.30
2022-08-29T08:57:22.956Z,33.20
2022-08-29T08:59:56.623Z,32.50
2022-08-29T09:02:35.390Z,32.50
2022-08-29T09:05:19.641Z,32.90
2022-08-29T09:07:56.397Z,32.90
2022-08-29T09:10:35.221Z,32.40
2022-08-29T09:13:19.093Z,32.30
2022-08-29T09:15:51.351Z,31.80
2022-08-29T10:47:05.453Z,24.60
2022-08-29T10:49:48.507Z,23.30
2022-08-29T10:52:24.553Z,22.70
2022-08-29T10:55:01.264Z,22.40
2022-08-29T10:57:42.824Z,22.40
2022-08-29T11:00:16.089Z,22.10
2022-08-29T11:02:50.985Z,22.10
2022-08-29T11:05:25.867Z,22.00
2022-08-29T11:07:59.311Z,21.10
2022-08-29T11:10:31.927Z,20.90
2022-08-29T11:13:06.710Z,21.10
2022-08-29T11:15:41.003Z,21.10
2022-08-29T11:18:22.149Z,21.10
2022-08-29T11:20:57.933Z,21.20
2022-08-29T11:23:38.340Z,20.90
2022-08-29T11:26:13.887Z,21.10
2022-08-29T11:28:48.126Z,21.10
2022-08-29T11:31:23.206Z,21.10
2022-08-29T11:34:03.491Z,20.90
2022-08-29T11:36:55.360Z,21.00
2022-08-29T11:39:42.409Z,21.20
2022-08-29T11:42:14.637Z,21.60
2022-08-29T11:44:47.724Z,21.80
2022-08-29T11:47:40.505Z,22.00
2022-08-29T11:50:29.424Z,22.00
2022-08-29T11:53:02.088Z,22.10
2022-08-29T11:55:37.429Z,22.20
2022-08-29T11:58:11.723Z,22.10
2022-08-29T12:04:05.036Z,22.10
2022-08-29T12:07:01.085Z,21.70
2022-08-29T12:12:56.721Z,21.60
2022-08-29T12:15:52.265Z,21.60
2022-08-29T12:18:44.809Z,21.80
2022-08-29T12:21:47.366Z,21.90
2022-08-29T12:24:44.221Z,22.20
2022-08-29T12:27:59.726Z,22.40
2022-08-29T12:30:28.520Z,22.40
2022-08-29T12:33:07.861Z,22.20
2022-08-29T12:36:11.137Z,22.30
2022-08-29T12:38:57.119Z,21.90
2022-08-29T12:41:36.108Z,22.00
2022-08-29T12:44:11.382Z,22.20
2022-08-29T12:46:42.446Z,22.20
2022-08-29T12:49:22.120Z,22.30
2022-08-29T12:51:56.919Z,22.60
2022-08-29T12:54:37.627Z,22.70
2022-08-29T12:57:09.286Z,23.00
2022-08-29T12:59:37.581Z,23.20
2022-08-29T13:02:06.975Z,23.50
2022-08-29T13:04:36.774Z,23.40
2022-08-29T13:07:07.166Z,23.60
2022-08-29T13:09:41.385Z,23.50
2022-08-29T13:12:12.620Z,23.30
2022-08-29T13:14:56.426Z,23.40
2022-08-29T13:17:27.926Z,22.90
2022-08-29T13:20:33.795Z,22.50
2022-08-29T13:23:07.422Z,22.60
2022-08-29T13:25:43.093Z,22.90
2022-08-29T13:28:15.529Z,23.00
2022-08-29T13:30:48.685Z,22.80
2022-08-29T13:33:35.294Z,21.80
2022-08-29T13:36:32.150Z,21.50
2022-08-29T13:39:26.563Z,21.70
2022-08-29T13:42:13.041Z,22.00
2022-08-29T13:45:10.996Z,21.90
2022-08-29T13:47:52.860Z,21.80
2022-08-29T13:50:21.141Z,21.80
2022-08-29T13:52:52.540Z,22.10
2022-08-29T13:55:21.988Z,22.00
2022-08-29T13:57:54.579Z,22.00
2022-08-29T14:00:32.394Z,22.00
2022-08-29T14:03:07.119Z,21.60
2022-08-29T14:05:36.299Z,21.40
2022-08-29T14:08:06.642Z,21.50
2022-08-29T14:10:35.280Z,21.60
2022-08-29T14:13:05.450Z,21.80
2022-08-29T14:15:34.247Z,21.90
2022-08-29T14:18:02.789Z,21.80
2022-08-29T14:20:31.105Z,21.80
2022-08-29T14:22:59.567Z,21.80
2022-08-29T14:25:27.984Z,21.80
2022-08-29T14:27:56.619Z,21.80
2022-08-29T14:30:26.871Z,21.40
2022-08-29T14:32:55.518Z,21.30
2022-08-29T14:35:25.983Z,21.30
2022-08-29T14:37:56.075Z,21.50
2022-08-29T14:40:25.831Z,21.50
2022-08-29T14:42:56.973Z,21.60
2022-08-29T14:45:26.862Z,21.40
2022-08-29T14:47:55.770Z,21.40
2022-08-29T14:50:24.866Z,21.60
2022-08-29T14:52:53.044Z,21.10
2022-08-29T14:55:22.377Z,21.00
2022-08-29T14:57:50.913Z,20.80
2022-08-29T15:00:21.727Z,20.50
2022-08-29T15:02:51.728Z,20.50
2022-08-29T15:05:21.225Z,20.40
2022-08-29T15:07:49.553Z,20.50
2022-08-29T15:10:20.110Z,20.60
2022-08-29T15:12:48.317Z,20.80
2022-08-29T15:15:16.459Z,20.80
2022-08-29T15:17:44.777Z,20.90
2022-08-29T15:20:35.351Z,21.30
2022-08-29T15:23:04.538Z,21.10
2022-08-29T15:25:32.740Z,21.00
2022-08-29T15:28:00.956Z,21.10
2022-08-29T15:30:29.450Z,21.20
2022-08-29T15:32:58.250Z,21.10
2022-08-29T15:35:27.881Z,20.80
2022-08-29T15:37:56.111Z,21.00
2022-08-29T15:40:25.536Z,21.10
2022-08-29T15:42:53.683Z,21.00
2022-08-29T15:45:22.521Z,21.00
2022-08-29T15:47:54.181Z,21.10
2022-08-29T15:50:24.113Z,21.10
2022-08-29T15:52:54.109Z,21.00
2022-08-29T15:55:24.684Z,21.00
2022-08-29T15:57:53.198Z,20.90
2022-08-29T16:00:30.054Z,20.90
2022-08-29T16:03:00.359Z,20.70
2022-08-29T16:05:29.210Z,20.60
2022-08-29T16:07:59.363Z,20.50
2022-08-29T16:10:27.535Z,20.50
2022-08-29T16:12:55.894Z,20.40
2022-08-29T16:15:24.518Z,20.10
